createdAt,value
2018-08-25T00:00:32.595Z,71.28
2018-08-25T00:03:01.194Z,71.07
2018-08-25T00:05:29.736Z,71.59
2018-08-25T00:07:58.116Z,71.38
2018-08-25T00:10:26.755Z,71.56
2018-08-25T00:12:55.138Z,71.06
2018-08-25T00:15:23.503Z,70.94
2018-08-25T00:17:53.056Z,71.01
2018-08-25T00:20:21.589Z,71.20
2018-08-25T00:22:50.133Z,70.91
2018-08-25T00:25:18.408Z,70.54
2018-08-25T00:27:46.700Z,69.47
2018-08-25T00:30:20.629Z,68.86
2018-08-25T00:32:49.111Z,69.17
2018-08-25T00:35:17.483Z,68.64
2018-08-25T00:37:45.981Z,69.37
2018-08-25T00:40:14.907Z,68.82
2018-08-25T00:42:43.439Z,67.98
2018-08-25T00:45:11.650Z,66.75
2018-08-25T00:47:40.128Z,67.02
2018-08-25T00:50:08.556Z,66.78
2018-08-25T00:52:36.960Z,67.33
2018-08-25T00:55:06.064Z,67.03
2018-08-25T00:57:34.618Z,66.46
2018-08-25T01:00:03.033Z,66.90
2018-08-25T01:02:31.573Z,67.42
2018-08-25T01:05:00.165Z,67.35
2018-08-25T01:07:28.825Z,67.20
2018-08-25T01:09:57.934Z,67.00
2018-08-25T01:12:26.433Z,67.22
2018-08-25T01:14:54.928Z,67.72
2018-08-25T01:17:23.181Z,66.50
2018-08-25T01:19:52.027Z,66.63
2018-08-25T01:22:20.886Z,66.94
2018-08-25T01:24:49.113Z,66.81
2018-08-25T01:27:17.355Z,66.66
2018-08-25T01:29:45.806Z,66.73
2018-08-25T01:32:14.033Z,67.05
2018-08-25T01:34:42.848Z,66.70
2018-08-25T01:37:11.275Z,66.22
2018-08-25T01:39:39.521Z,66.68
2018-08-25T01:42:08.284Z,67.06
2018-08-25T01:44:36.496Z,67.27
2018-08-25T01:47:05.245Z,67.36
2018-08-25T01:49:33.561Z,67.20
2018-08-25T01:52:01.746Z,68.60
2018-08-25T01:54:30.193Z,69.55
2018-08-25T01:56:58.377Z,69.40
2018-08-25T01:59:27.220Z,69.48
2018-08-25T02:01:55.997Z,69.58
2018-08-25T02:04:24.191Z,69.67
2018-08-25T02:06:52.381Z,69.59
2018-08-25T02:09:20.686Z,69.79
2018-08-25T02:11:49.440Z,70.11
2018-08-25T02:14:17.616Z,70.90
2018-08-25T02:16:45.844Z,70.68
2018-08-25T02:19:14.577Z,71.16
2018-08-25T02:21:42.795Z,71.05
2018-08-25T02:24:11.067Z,71.08
2018-08-25T02:26:39.311Z,70.28
2018-08-25T02:29:08.150Z,71.56
2018-08-25T02:31:36.552Z,71.27
2018-08-25T02:34:05.089Z,71.45
2018-08-25T02:36:33.373Z,70.21
2018-08-25T02:39:01.849Z,70.02
2018-08-25T02:41:30.704Z,70.15
2018-08-25T02:43:58.916Z,70.04
2018-08-25T02:46:27.541Z,70.70
2018-08-25T02:48:55.790Z,69.59
2018-08-25T02:51:24.486Z,69.33
2018-08-25T02:53:53.241Z,69.52
2018-08-25T02:56:22.111Z,69.27
2018-08-25T02:58:50.592Z,67.96
2018-08-25T03:01:18.966Z,68.16
2018-08-25T03:03:47.161Z,67.85
2018-08-25T03:06:15.422Z,67.85
2018-08-25T03:08:43.646Z,68.18
2018-08-25T03:11:12.156Z,67.65
2018-08-25T03:13:41.141Z,68.06
2018-08-25T03:16:09.493Z,68.25
2018-08-25T03:18:38.736Z,68.39
2018-08-25T03:21:07.193Z,68.40
2018-08-25T03:23:35.608Z,68.03
2018-08-25T03:26:03.881Z,67.66
2018-08-25T03:28:32.422Z,68.77
2018-08-25T03:31:01.265Z,68.64
2018-08-25T03:33:29.527Z,68.43
2018-08-25T03:35:58.272Z,68.17
2018-08-25T03:38:26.527Z,68.20
2018-08-25T03:40:56.256Z,68.37
2018-08-25T03:43:24.945Z,68.73
2018-08-25T03:45:53.463Z,69.18
2018-08-25T03:48:22.340Z,69.57
2018-08-25T03:50:51.618Z,68.87
2018-08-25T03:53:19.880Z,68.70
2018-08-25T03:55:49.724Z,68.62
2018-08-25T03:58:18.208Z,68.82
2018-08-25T04:00:46.827Z,68.34
2018-08-25T04:03:15.913Z,68.60
2018-08-25T04:05:44.800Z,68.80
2018-08-25T04:08:13.868Z,68.47
2018-08-25T04:10:42.452Z,67.96
2018-08-25T04:13:11.145Z,66.85
2018-08-25T04:15:40.887Z,67.46
2018-08-25T04:18:09.467Z,67.21
2018-08-25T04:20:38.248Z,66.86
2018-08-25T04:23:07.970Z,67.86
2018-08-25T04:25:36.966Z,68.44
2018-08-25T04:28:06.150Z,67.88
2018-08-25T04:30:34.631Z,68.28
2018-08-25T04:33:03.283Z,68.21
2018-08-25T04:35:34.409Z,68.10
2018-08-25T04:38:04.243Z,68.42
2018-08-25T04:40:33.769Z,69.14
2018-08-25T04:43:02.769Z,68.79
2018-08-25T04:45:31.776Z,69.07
2018-08-25T04:48:00.637Z,68.53
2018-08-25T04:50:29.756Z,68.33
2018-08-25T04:52:58.376Z,68.02
2018-08-25T04:55:26.678Z,68.45
2018-08-25T04:57:55.886Z,68.25
2018-08-25T05:00:24.268Z,68.52
2018-08-25T05:02:53.649Z,68.81
2018-08-25T05:05:23.367Z,68.87
2018-08-25T05:07:51.992Z,68.36
2018-08-25T05:10:20.230Z,67.26
2018-08-25T05:12:49.669Z,67.19
2018-08-25T05:15:19.173Z,67.83
2018-08-25T05:17:47.848Z,67.55
2018-08-25T05:20:16.481Z,66.96
2018-08-25T05:22:46.165Z,66.03
2018-08-25T05:25:14.987Z,65.86
2018-08-25T05:27:43.508Z,66.03
2018-08-25T05:30:12.221Z,64.98
2018-08-25T05:32:40.981Z,65.61
2018-08-25T05:35:09.485Z,65.33
2018-08-25T05:37:38.406Z,64.83
2018-08-25T05:40:07.082Z,64.32
2018-08-25T05:42:36.127Z,63.55
2018-08-25T05:45:04.823Z,64.00
2018-08-25T05:47:33.281Z,63.35
2018-08-25T05:50:01.623Z,63.59
2018-08-25T05:52:29.836Z,62.94
2018-08-25T05:54:58.338Z,64.36
2018-08-25T05:57:27.850Z,63.19
2018-08-25T05:59:56.528Z,63.52
2018-08-25T06:02:25.728Z,63.50
2018-08-25T06:04:54.066Z,62.79
2018-08-25T06:07:22.280Z,62.90
2018-08-25T06:09:50.640Z,62.66
2018-08-25T06:12:19.770Z,62.00
2018-08-25T06:14:49.561Z,61.76
2018-08-25T06:17:18.057Z,62.03
2018-08-25T06:19:47.333Z,62.15
2018-08-25T06:22:16.686Z,62.26
2018-08-25T06:24:45.244Z,62.19
2018-08-25T06:27:14.365Z,62.72
2018-08-25T06:29:42.728Z,61.76
2018-08-25T06:32:11.068Z,62.07
2018-08-25T06:34:40.041Z,62.21
2018-08-25T06:37:08.346Z,61.98
2018-08-25T06:39:37.508Z,62.22
2018-08-25T06:42:06.952Z,62.05
2018-08-25T06:44:35.805Z,62.22
2018-08-25T06:47:05.021Z,62.71
2018-08-25T06:49:33.389Z,62.32
2018-08-25T06:52:01.868Z,62.43
2018-08-25T06:54:30.675Z,62.31
2018-08-25T06:56:58.959Z,62.03
2018-08-25T06:59:27.633Z,61.75
2018-08-25T07:01:55.923Z,61.76
2018-08-25T07:04:24.873Z,61.15
2018-08-25T07:06:53.177Z,61.83
2018-08-25T07:09:21.559Z,61.06
2018-08-25T07:11:50.534Z,61.49
2018-08-25T07:14:19.130Z,61.38
2018-08-25T07:16:48.016Z,61.56
2018-08-25T07:19:16.513Z,61.78
2018-08-25T07:21:45.314Z,60.85
2018-08-25T07:24:13.804Z,60.64
2018-08-25T07:26:42.438Z,61.14
2018-08-25T07:29:10.817Z,61.35
2018-08-25T07:31:39.289Z,61.47
2018-08-25T07:34:08.260Z,61.07
2018-08-25T07:36:36.592Z,61.14
2018-08-25T07:39:09.351Z,61.28
2018-08-25T07:41:37.759Z,60.84
2018-08-25T07:44:07.305Z,61.04
2018-08-25T07:46:35.990Z,60.49
2018-08-25T07:49:04.767Z,61.10
2018-08-25T07:51:35.174Z,61.64
2018-08-25T07:54:03.941Z,61.46
2018-08-25T07:56:32.142Z,61.31
2018-08-25T07:59:00.663Z,61.77
2018-08-25T08:01:30.017Z,61.69
2018-08-25T08:03:59.951Z,60.55
2018-08-25T08:06:29.682Z,60.59
2018-08-25T08:08:58.227Z,60.15
2018-08-25T08:11:27.113Z,59.33
2018-08-25T08:13:56.196Z,58.50
2018-08-25T08:16:24.886Z,58.87
2018-08-25T08:18:53.482Z,59.04
2018-08-25T08:21:22.357Z,58.18
2018-08-25T08:23:50.650Z,58.64
2018-08-25T08:26:20.281Z,58.34
2018-08-25T08:28:49.648Z,57.43
2018-08-25T08:31:18.109Z,57.79
2018-08-25T08:33:46.723Z,57.34
2018-08-25T08:36:15.705Z,58.08
2018-08-25T08:38:44.964Z,57.31
2018-08-25T08:41:14.985Z,55.20
2018-08-25T08:43:44.312Z,54.45
2018-08-25T08:46:18.763Z,54.53
2018-08-25T08:48:47.297Z,54.74
2018-08-25T08:51:16.234Z,53.14
2018-08-25T08:53:45.215Z,53.65
2018-08-25T08:56:14.435Z,53.05
2018-08-25T08:58:42.788Z,52.80
2018-08-25T09:01:13.159Z,52.76
2018-08-25T09:03:42.324Z,53.70
2018-08-25T09:06:12.484Z,52.70
2018-08-25T09:08:41.107Z,51.45
2018-08-25T09:11:10.980Z,52.51
2018-08-25T09:13:39.244Z,52.29
2018-08-25T09:16:07.863Z,51.93
2018-08-25T09:18:37.760Z,53.17
2018-08-25T09:21:06.029Z,53.92
2018-08-25T09:23:35.786Z,54.31
2018-08-25T09:26:04.566Z,54.81
2018-08-25T09:28:33.502Z,54.57
2018-08-25T09:31:02.983Z,54.36
2018-08-25T09:33:31.800Z,54.15
2018-08-25T09:36:01.765Z,54.67
2018-08-25T09:38:30.880Z,54.96
2018-08-25T09:41:00.720Z,54.81
2018-08-25T09:43:30.664Z,54.93
2018-08-25T09:46:00.535Z,54.37
2018-08-25T09:48:29.275Z,53.71
2018-08-25T09:50:58.744Z,53.85
2018-08-25T09:53:28.568Z,54.17
2018-08-25T09:55:56.836Z,53.06
2018-08-25T09:58:25.097Z,54.13
2018-08-25T10:00:59.600Z,55.97
2018-08-25T10:03:28.447Z,54.95
2018-08-25T10:05:57.314Z,55.70
2018-08-25T10:08:26.455Z,55.78
2018-08-25T10:10:56.642Z,56.60
2018-08-25T10:13:25.262Z,59.19
2018-08-25T10:15:54.082Z,58.09
2018-08-25T10:18:22.942Z,57.42
2018-08-25T10:20:51.298Z,57.82
2018-08-25T10:23:21.112Z,58.65
2018-08-25T10:25:50.180Z,59.34
2018-08-25T10:28:19.583Z,59.17
2018-08-25T10:30:48.702Z,59.59
2018-08-25T10:33:18.078Z,60.59
2018-08-25T10:35:46.715Z,59.87
2018-08-25T10:38:15.182Z,58.60
2018-08-25T10:40:43.727Z,59.74
2018-08-25T10:43:12.138Z,60.03
2018-08-25T10:45:42.916Z,59.95
2018-08-25T10:48:11.824Z,60.64
2018-08-25T10:50:40.096Z,59.78
2018-08-25T10:53:10.535Z,62.84
2018-08-25T10:55:38.845Z,63.15
2018-08-25T10:58:07.588Z,63.23
2018-08-25T11:00:36.249Z,62.10
2018-08-25T11:03:04.963Z,64.10
2018-08-25T11:05:34.723Z,64.36
2018-08-25T11:08:05.089Z,67.53
2018-08-25T11:10:33.248Z,66.19
2018-08-25T11:13:01.919Z,65.94
2018-08-25T11:15:31.856Z,64.86
2018-08-25T11:18:00.120Z,66.76
2018-08-25T11:20:33.292Z,67.05
2018-08-25T11:23:01.867Z,66.92
2018-08-25T11:25:30.603Z,67.79
2018-08-25T11:27:59.183Z,65.93
2018-08-25T11:30:28.099Z,68.61
2018-08-25T11:32:57.706Z,69.90
2018-08-25T11:35:27.777Z,69.79
2018-08-25T11:37:56.462Z,70.84
2018-08-25T11:40:25.116Z,70.53
2018-08-25T11:42:54.416Z,71.46
2018-08-25T11:45:24.756Z,68.45
2018-08-25T11:47:53.203Z,67.85
2018-08-25T11:50:22.594Z,66.43
2018-08-25T11:53:01.887Z,64.87
2018-08-25T11:55:30.257Z,63.28
2018-08-25T11:57:58.548Z,64.11
2018-08-25T12:00:27.208Z,64.65
2018-08-25T12:02:55.697Z,65.28
2018-08-25T12:05:24.844Z,66.39
2018-08-25T12:07:54.248Z,67.49
2018-08-25T12:10:23.284Z,66.16
2018-08-25T12:12:51.504Z,67.64
2018-08-25T12:15:20.859Z,66.78
2018-08-25T12:17:49.265Z,68.62
2018-08-25T12:20:17.924Z,69.09
2018-08-25T12:22:46.606Z,66.42
2018-08-25T12:25:15.016Z,66.65
2018-08-25T12:27:43.428Z,67.06
2018-08-25T12:30:12.655Z,66.14
2018-08-25T12:32:41.571Z,64.61
2018-08-25T12:35:10.350Z,63.73
2018-08-25T12:37:38.961Z,64.25
2018-08-25T12:40:08.497Z,63.97
2018-08-25T12:42:38.408Z,63.45
2018-08-25T12:45:08.101Z,62.51
2018-08-25T12:47:37.362Z,63.68
2018-08-25T12:50:06.781Z,62.26
2018-08-25T12:52:35.096Z,62.75
2018-08-25T12:55:04.133Z,60.98
2018-08-25T12:57:32.605Z,61.22
2018-08-25T13:00:01.504Z,61.28
2018-08-25T13:02:30.735Z,61.86
2018-08-25T13:04:59.156Z,61.88
2018-08-25T13:07:27.576Z,62.49
2018-08-25T13:09:56.655Z,63.10
2018-08-25T13:12:25.221Z,64.29
2018-08-25T13:14:54.293Z,62.28
2018-08-25T13:17:23.724Z,64.30
2018-08-25T13:19:52.243Z,62.99
2018-08-25T13:22:20.660Z,64.36
2018-08-25T13:24:49.282Z,63.70
2018-08-25T13:27:17.571Z,64.43
2018-08-25T13:29:46.243Z,62.75
2018-08-25T13:32:15.676Z,63.56
2018-08-25T13:34:44.147Z,63.08
2018-08-25T13:37:12.734Z,62.40
2018-08-25T13:39:41.948Z,63.43
2018-08-25T13:42:11.383Z,63.23
2018-08-25T13:44:39.812Z,63.44
2018-08-25T13:47:08.879Z,63.37
2018-08-25T13:49:37.257Z,64.74
2018-08-25T13:52:06.426Z,64.59
2018-08-25T13:54:34.745Z,64.56
2018-08-25T13:57:03.347Z,64.20
2018-08-25T13:59:31.569Z,65.75
2018-08-25T14:02:00.016Z,65.52
2018-08-25T14:04:28.668Z,66.66
2018-08-25T14:06:57.404Z,67.15
2018-08-25T14:09:25.982Z,68.84
2018-08-25T14:11:54.308Z,69.74
2018-08-25T14:14:24.110Z,72.43
2018-08-25T14:16:53.158Z,73.87
2018-08-25T14:19:22.806Z,72.37
2018-08-25T14:21:51.121Z,73.31
2018-08-25T14:24:19.798Z,74.17
2018-08-25T14:26:48.393Z,73.33
2018-08-25T14:29:17.883Z,72.57
2018-08-25T14:31:46.228Z,70.17
2018-08-25T14:34:15.110Z,69.41
2018-08-25T14:36:43.590Z,67.09
2018-08-25T14:39:12.274Z,62.38
2018-08-25T14:41:42.180Z,62.46
2018-08-25T14:44:10.708Z,59.75
2018-08-25T14:46:39.693Z,59.87
2018-08-25T14:49:07.985Z,58.72
2018-08-25T14:51:39.200Z,58.92
2018-08-25T14:54:09.336Z,57.94
2018-08-25T14:56:42.176Z,57.08
2018-08-25T14:59:17.314Z,56.51
2018-08-25T15:01:49.604Z,55.09
2018-08-25T15:04:19.025Z,52.46
2018-08-25T15:06:48.333Z,55.02
2018-08-25T15:09:27.335Z,50.29
2018-08-25T15:11:55.894Z,53.38
2018-08-25T15:14:27.199Z,53.04
2018-08-25T15:16:55.644Z,50.54
2018-08-25T15:19:23.969Z,50.57
2018-08-25T15:22:12.793Z,50.45
2018-08-25T15:24:41.068Z,50.39
2018-08-25T15:27:10.688Z,50.63
2018-08-25T15:29:39.887Z,52.42
2018-08-25T15:32:09.537Z,52.48
2018-08-25T15:34:37.779Z,53.56
2018-08-25T15:37:06.807Z,55.27
2018-08-25T15:39:35.361Z,55.83
2018-08-25T15:42:04.221Z,56.60
2018-08-25T15:44:33.420Z,57.00
2018-08-25T15:47:02.222Z,55.59
2018-08-25T15:49:31.638Z,55.71
2018-08-25T15:52:01.678Z,55.63
2018-08-25T15:54:30.237Z,55.17
2018-08-25T15:56:59.249Z,55.75
2018-08-25T15:59:28.304Z,56.31
2018-08-25T16:01:57.435Z,56.37
2018-08-25T16:04:28.333Z,55.98
2018-08-25T16:06:56.831Z,56.71
2018-08-25T16:09:32.018Z,56.79
2018-08-25T16:12:02.254Z,56.72
2018-08-25T16:14:31.340Z,56.29
2018-08-25T16:16:59.772Z,56.52
2018-08-25T16:19:28.910Z,56.77
2018-08-25T16:21:58.411Z,57.78
2018-08-25T16:24:27.627Z,56.80
2018-08-25T16:26:58.246Z,57.81
2018-08-25T16:29:27.565Z,56.59
2018-08-25T16:31:56.674Z,57.02
2018-08-25T16:34:25.430Z,57.00
2018-08-25T16:36:55.079Z,56.85
2018-08-25T16:39:23.934Z,57.21
2018-08-25T16:41:52.305Z,57.54
2018-08-25T16:44:21.161Z,57.34
2018-08-25T16:46:49.855Z,57.08
2018-08-25T16:49:18.171Z,57.01
2018-08-25T16:51:46.416Z,56.85
2018-08-25T16:54:14.847Z,56.82
2018-08-25T16:56:43.598Z,56.22
2018-08-25T16:59:13.639Z,55.97
2018-08-25T17:01:42.370Z,57.20
2018-08-25T17:04:11.590Z,56.82
2018-08-25T17:06:42.323Z,55.71
2018-08-25T17:09:11.756Z,54.17
2018-08-25T17:11:41.009Z,49.11
2018-08-25T17:14:10.653Z,43.90
2018-08-25T17:16:42.303Z,41.74
2018-08-25T17:19:11.488Z,41.16
2018-08-25T17:21:41.566Z,42.72
2018-08-25T17:24:10.196Z,44.66
2018-08-25T17:26:38.694Z,48.10
2018-08-25T17:29:07.457Z,51.21
2018-08-25T17:31:39.558Z,51.75
2018-08-25T17:34:08.645Z,53.02
2018-08-25T17:36:37.333Z,53.31
2018-08-25T17:39:10.972Z,53.39
2018-08-25T17:41:41.308Z,54.48
2018-08-25T17:44:12.439Z,54.80
2018-08-25T17:46:42.645Z,56.07
2018-08-25T17:49:11.868Z,56.62
2018-08-25T17:51:41.461Z,56.57
2018-08-25T17:54:10.351Z,57.72
2018-08-25T17:56:38.726Z,57.55
2018-08-25T17:59:08.653Z,57.71
2018-08-25T18:01:37.080Z,58.48
2018-08-25T18:04:05.379Z,59.26
2018-08-25T18:06:34.311Z,60.17
2018-08-25T18:09:04.728Z,60.42
2018-08-25T18:11:34.470Z,60.45
2018-08-25T18:14:11.197Z,61.51
2018-08-25T18:16:39.840Z,61.45
2018-08-25T18:19:08.199Z,61.65
2018-08-25T18:21:39.051Z,62.21
2018-08-25T18:24:08.427Z,62.02
2018-08-25T18:26:37.370Z,62.75
2018-08-25T18:29:06.875Z,62.66
2018-08-25T18:31:35.788Z,63.20
2018-08-25T18:34:04.625Z,63.58
2018-08-25T18:36:34.132Z,64.67
2018-08-25T18:39:03.550Z,64.52
2018-08-25T18:41:32.012Z,65.14
2018-08-25T18:44:02.739Z,65.53
2018-08-25T18:46:32.472Z,65.75
2018-08-25T18:49:01.432Z,66.14
2018-08-25T18:51:30.744Z,66.54
2018-08-25T18:54:01.104Z,67.07
2018-08-25T18:56:33.741Z,67.64
2018-08-25T18:59:04.264Z,67.39
2018-08-25T19:01:34.902Z,67.25
2018-08-25T19:04:03.613Z,67.58
2018-08-25T19:06:34.023Z,66.98
2018-08-25T19:09:06.216Z,67.80
2018-08-25T19:11:35.352Z,68.24
2018-08-25T19:14:04.246Z,67.52
2018-08-25T19:16:35.922Z,67.96
2018-08-25T19:19:06.415Z,68.56
2018-08-25T19:21:36.022Z,68.83
2018-08-25T19:24:06.225Z,69.46
2018-08-25T19:26:41.379Z,69.61
2018-08-25T19:29:12.464Z,69.55
2018-08-25T19:31:46.059Z,70.14
2018-08-25T19:34:17.848Z,70.32
2018-08-25T19:36:47.504Z,70.98
2018-08-25T19:39:18.687Z,70.83
2018-08-25T19:41:49.078Z,70.86
2018-08-25T19:44:18.825Z,71.51
2018-08-25T19:46:47.196Z,70.54
2018-08-25T19:49:17.396Z,70.45
2018-08-25T19:51:47.652Z,70.63
2018-08-25T19:54:17.189Z,70.92
2018-08-25T19:56:45.926Z,70.83
2018-08-25T19:59:15.083Z,71.28
2018-08-25T20:01:47.169Z,71.37
2018-08-25T20:04:17.849Z,71.66
2018-08-25T20:06:46.408Z,71.25
2018-08-25T20:09:15.604Z,71.57
2018-08-25T20:11:46.135Z,71.95
2018-08-25T20:14:17.480Z,71.97
2018-08-25T20:16:46.400Z,72.48
2018-08-25T20:19:15.905Z,72.27
2018-08-25T20:21:46.280Z,72.71
2018-08-25T20:24:16.557Z,73.56
2018-08-25T20:26:46.864Z,74.19
2018-08-25T20:29:15.258Z,74.52
2018-08-25T20:31:44.070Z,74.51
2018-08-25T20:34:13.554Z,73.91
2018-08-25T20:36:42.319Z,74.21
2018-08-25T20:39:11.377Z,74.47
2018-08-25T20:41:39.928Z,74.11
2018-08-25T20:44:08.881Z,74.32
2018-08-25T20:46:39.645Z,74.93
2018-08-25T20:49:08.813Z,74.89
2018-08-25T20:51:39.218Z,74.55
2018-08-25T20:54:08.557Z,74.63
2018-08-25T20:56:37.568Z,74.26
2018-08-25T20:59:12.498Z,74.19
2018-08-25T21:01:48.452Z,74.29
2018-08-25T21:04:17.555Z,74.85
2018-08-25T21:06:46.425Z,74.54
2018-08-25T21:09:15.747Z,74.26
2018-08-25T21:11:44.951Z,74.70
2018-08-25T21:14:14.405Z,74.30
2018-08-25T21:16:43.588Z,74.32
2018-08-25T21:19:13.728Z,74.56
2018-08-25T21:21:42.995Z,74.11
2018-08-25T21:24:11.840Z,74.01
2018-08-25T21:26:40.095Z,73.84
2018-08-25T21:29:08.802Z,74.16
2018-08-25T21:31:38.966Z,73.82
2018-08-25T21:34:09.571Z,74.12
2018-08-25T21:36:40.873Z,73.18
2018-08-25T21:39:12.687Z,73.59
2018-08-25T21:41:43.584Z,73.02
2018-08-25T21:44:12.501Z,72.71
2018-08-25T21:46:42.648Z,72.54
2018-08-25T21:49:13.706Z,72.57
2018-08-25T21:51:44.706Z,72.60
2018-08-25T21:54:15.555Z,72.60
2018-08-25T21:56:44.895Z,73.67
2018-08-25T21:59:15.078Z,73.68
2018-08-25T22:01:48.530Z,73.84
2018-08-25T22:04:17.501Z,72.89
2018-08-25T22:06:45.865Z,72.82
2018-08-25T22:09:15.007Z,72.46
2018-08-25T22:11:45.319Z,73.35
2018-08-25T22:14:14.408Z,72.09
2018-08-25T22:16:44.165Z,72.54
2018-08-25T22:19:12.938Z,72.14
2018-08-25T22:21:42.094Z,72.57
2018-08-25T22:24:11.250Z,71.88
2018-08-25T22:26:40.655Z,72.61
2018-08-25T22:29:10.903Z,72.54
2018-08-25T22:31:41.761Z,74.39
2018-08-25T22:34:10.188Z,72.03
2018-08-25T22:36:38.669Z,72.58
2018-08-25T22:39:10.242Z,72.76
2018-08-25T22:41:39.370Z,72.06
2018-08-25T22:44:10.006Z,72.71
2018-08-25T22:46:39.039Z,73.32
2018-08-25T22:49:08.845Z,73.11
2018-08-25T22:51:42.036Z,74.75
2018-08-25T22:54:10.380Z,75.29
2018-08-25T22:56:39.613Z,77.37
2018-08-25T22:59:09.922Z,78.30
2018-08-25T23:01:43.202Z,78.93
2018-08-25T23:04:12.959Z,79.73
2018-08-25T23:06:45.966Z,77.94
2018-08-25T23:09:14.622Z,77.90
2018-08-25T23:11:45.010Z,78.41
2018-08-25T23:14:15.611Z,78.54
2018-08-25T23:16:46.254Z,78.39
2018-08-25T23:19:16.650Z,79.64
2018-08-25T23:21:46.713Z,79.88
2018-08-25T23:24:15.370Z,81.25
2018-08-25T23:26:45.188Z,81.06
2018-08-25T23:29:14.585Z,80.39
2018-08-25T23:31:45.474Z,80.22
2018-08-25T23:34:14.917Z,80.90
2018-08-25T23:36:45.205Z,80.37
2018-08-25T23:39:16.047Z,80.49
2018-08-25T23:41:45.599Z,78.17
2018-08-25T23:44:14.193Z,78.10
2018-08-25T23:46:43.975Z,80.10
2018-08-25T23:49:14.192Z,79.95
2018-08-25T23:51:44.451Z,79.80
2018-08-25T23:54:12.983Z,80.93
2018-08-25T23:56:41.364Z,81.58
2018-08-25T23:59:11.407Z,80.54
